Sagar Samrat — 9V3247 — position and weather

sailwx.info

Track history (hours):
 
Tides and Currents Weather Stations Pressure Air Temp Water Temp Dewpoint Dewpoint Depression Visibility Wind Speed Wind Dir Waves Ship Positions

Sagar Samrat

Last reported at 2017-Nov-20 00:27 UTC. Time now 2017-Nov-22 14:53 UTC.
Position N 52°28' E 004°35'.

Length 225 m; draft 14.1 m.

Type: Cargo ship. MMSI: 566014000.

Date/timePositionNaut miles runAvg speedWind from/ knotsBaromVisibWave heightAir tempDewpointWater temp
2017-Nov-20 00:27N 52°28' E 004°35'0 0.0
2017-Nov-20 00:00N 52°28' E 004°35'0 0.0
2017-Nov-19 23:30N 52°28' E 004°35'0 0.0
2017-Nov-19 23:00N 52°28' E 004°35'0 0.0
2017-Nov-19 22:30N 52°28' E 004°35'0 0.0
2017-Nov-19 21:57N 52°28' E 004°35'0 0.0
2017-Nov-19 21:30N 52°28' E 004°35'0 0.0
2017-Nov-19 21:00N 52°28' E 004°35'0 0.0
2017-Nov-19 20:30N 52°28' E 004°35'0 0.0
2017-Nov-19 20:00N 52°28' E 004°35'0 0.0
2017-Nov-19 19:30N 52°28' E 004°35'0 0.0
2017-Nov-19 19:00N 52°28' E 004°35'0 0.0
2017-Nov-19 18:30N 52°28' E 004°35'0 0.0
2017-Nov-19 17:57N 52°28' E 004°35'0 0.0
2017-Nov-19 17:30N 52°28' E 004°35'0 0.0
2017-Nov-19 17:00N 52°28' E 004°35'0 0.0
2017-Nov-19 16:30N 52°28' E 004°35'0 0.0
2017-Nov-19 16:00N 52°28' E 004°35'0 0.0
2017-Nov-19 15:30N 52°28' E 004°35'0 0.0
2017-Nov-19 15:00N 52°28' E 004°35'0 0.0
2017-Nov-19 14:30N 52°28' E 004°35'0 0.0
2017-Nov-19 14:00N 52°28' E 004°35'0 0.0
2017-Nov-19 13:30N 52°28' E 004°35'0 0.0
2017-Nov-19 12:57N 52°28' E 004°35'0 0.0
2017-Nov-19 12:30N 52°28' E 004°35'0 0.0
2017-Nov-19 12:00N 52°28' E 004°35'0 0.0
2017-Nov-19 11:30N 52°28' E 004°35'0 0.0
2017-Nov-19 11:00N 52°28' E 004°35'0 0.0
2017-Nov-19 10:30N 52°28' E 004°35'0 0.0
2017-Nov-19 10:00N 52°28' E 004°35'0 0.0
2017-Nov-19 09:30N 52°28' E 004°35'0 0.0
2017-Nov-19 09:00N 52°28' E 004°35'0 0.0
2017-Nov-19 08:30N 52°28' E 004°35'0 0.0
2017-Nov-19 08:00N 52°28' E 004°35'0 0.0
2017-Nov-19 07:30N 52°28' E 004°35'0 0.0
2017-Nov-19 07:00N 52°28' E 004°35'0 0.0
2017-Nov-19 06:30N 52°28' E 004°35'0 0.0
2017-Nov-19 06:00N 52°28' E 004°35'0 0.0
2017-Nov-19 05:30N 52°28' E 004°35'0 0.0
2017-Nov-19 05:00N 52°28' E 004°35'0 0.0
2017-Nov-19 04:30N 52°28' E 004°35'0 0.0
2017-Nov-19 04:00N 52°28' E 004°35'0 0.0
2017-Nov-19 03:24N 52°28' E 004°35'0 0.0
2017-Nov-19 03:00N 52°28' E 004°35'0 0.0
2017-Nov-19 02:30N 52°28' E 004°35'0 0.0
2017-Nov-19 02:00N 52°28' E 004°35'0 0.0
2017-Nov-19 01:30N 52°28' E 004°35'0 0.0
2017-Nov-19 01:00N 52°28' E 004°35'0 0.0
2017-Nov-19 00:30N 52°28' E 004°35'0 0.0
2017-Nov-19 00:00N 52°28' E 004°35'0 0.0
2017-Nov-18 23:27N 52°28' E 004°35'0 0.0
2017-Nov-18 23:00N 52°28' E 004°35'0 0.0
2017-Nov-18 22:30N 52°28' E 004°35'0 0.0
2017-Nov-18 22:00N 52°28' E 004°35'0 0.0
2017-Nov-18 21:30N 52°28' E 004°35'0 0.0
2017-Nov-18 21:00N 52°28' E 004°35'0 0.0
2017-Nov-18 20:30N 52°28' E 004°35'0 0.0
2017-Nov-18 20:00N 52°28' E 004°35'0 0.0
2017-Nov-18 19:30N 52°28' E 004°35'0 0.0
2017-Nov-18 19:00N 52°28' E 004°35'0 0.0
2017-Nov-18 18:30N 52°28' E 004°35'0 0.0
2017-Nov-18 18:00N 52°28' E 004°35'0 0.0
2017-Nov-18 17:30N 52°28' E 004°35'0 0.8
2017-Nov-18 17:01N 52°28' E 004°35'4 7.7
2017-Nov-18 16:30N 52°28' E 004°28'5 9.4
2017-Nov-18 16:01N 52°29' E 004°21'2 3.4
2017-Nov-18 15:31N 52°29' E 004°18'2 4.0
2017-Nov-18 15:00N 52°29' E 004°15'3 5.8
2017-Nov-18 14:30N 52°29' E 004°10'3 6.9
2017-Nov-18 14:01N 52°28' E 004°05'1 1.7
2017-Nov-18 13:29N 52°27' E 004°05'0 0.3
2017-Nov-18 12:59N 52°27' E 004°05'0 0.1
2017-Nov-18 12:29N 52°27' E 004°05'0 0.1
2017-Nov-18 11:59N 52°27' E 004°05'0 0.2
2017-Nov-18 11:29N 52°27' E 004°05'0 0.1
2017-Nov-18 10:59N 52°27' E 004°05'0 0.1
2017-Nov-18 10:29N 52°27' E 004°05'0 0.0
2017-Nov-18 09:59N 52°27' E 004°05'0 0.1
2017-Nov-18 09:20N 52°27' E 004°05'0 0.0
2017-Nov-18 08:59N 52°27' E 004°05'0 0.0
2017-Nov-18 08:29N 52°27' E 004°05'0 0.0
2017-Nov-18 07:59N 52°27' E 004°05'0 0.1
2017-Nov-18 07:29N 52°27' E 004°05'0 0.2
2017-Nov-18 06:59N 52°27' E 004°05'0 0.1
2017-Nov-18 06:26N 52°27' E 004°05'0 0.1
2017-Nov-18 05:59N 52°27' E 004°05'0 0.0
2017-Nov-18 05:29N 52°27' E 004°05'0 0.1
2017-Nov-18 04:59N 52°27' E 004°05'0 0.2
2017-Nov-18 04:29N 52°27' E 004°05'0 0.1
2017-Nov-18 03:59N 52°27' E 004°05'0 0.1
2017-Nov-18 03:29N 52°27' E 004°05'0 0.0
2017-Nov-18 02:59N 52°27' E 004°05'0 0.0
2017-Nov-18 02:29N 52°27' E 004°05'0 0.0
2017-Nov-18 01:59N 52°27' E 004°05'0 0.1
2017-Nov-18 01:29N 52°27' E 004°05'0 0.1
2017-Nov-18 00:59N 52°27' E 004°05'0 0.2
2017-Nov-18 00:29N 52°27' E 004°05'0 0.1
2017-Nov-17 23:59N 52°27' E 004°05'0 0.2
2017-Nov-17 23:29N 52°27' E 004°05'0 0.1
2017-Nov-17 22:59N 52°27' E 004°05'0 0.0
2017-Nov-17 22:23N 52°27' E 004°05'0 0.0
2017-Nov-17 21:29N 52°27' E 004°05'0 0.0
2017-Nov-17 20:56N 52°27' E 004°05'0 0.0
2017-Nov-17 20:29N 52°27' E 004°05'0 0.0
2017-Nov-17 19:53N 52°27' E 004°05'0 0.0
2017-Nov-17 19:29N 52°27' E 004°05'0 0.1
2017-Nov-17 18:50N 52°27' E 004°05'0 0.1
2017-Nov-17 18:26N 52°27' E 004°05'0 0.1
2017-Nov-17 17:59N 52°27' E 004°05'0 0.2
2017-Nov-17 17:29N 52°27' E 004°05'0 0.2
2017-Nov-17 16:59N 52°27' E 004°05'0 0.1
2017-Nov-17 16:26N 52°27' E 004°05'0 0.0
2017-Nov-17 15:59N 52°27' E 004°05'0 0.0
2017-Nov-17 15:29N 52°27' E 004°05'0 0.0
2017-Nov-17 14:59N 52°27' E 004°05'0 0.0
2017-Nov-17 14:29N 52°27' E 004°05'0 0.0
2017-Nov-17 13:59N 52°27' E 004°05'0 0.0
2017-Nov-17 13:29N 52°27' E 004°05'0 0.1
2017-Nov-17 12:56N 52°27' E 004°05'0 0.1
2017-Nov-17 12:29N 52°27' E 004°05'0 0.2
2017-Nov-17 11:59N 52°27' E 004°05'0 0.2
2017-Nov-17 11:29N 52°27' E 004°05'0 0.1
2017-Nov-17 10:53N 52°27' E 004°05'0 0.0
2017-Nov-17 10:26N 52°27' E 004°05'0 0.0
2017-Nov-17 09:59N 52°27' E 004°05'0 0.0
2017-Nov-17 09:20N 52°27' E 004°05'0 0.0
2017-Nov-17 08:59N 52°27' E 004°05'0 0.0
2017-Nov-17 08:29N 52°27' E 004°05'0 0.0
2017-Nov-17 07:59N 52°27' E 004°05'0 0.0
2017-Nov-17 07:23N 52°27' E 004°05'0 0.0
2017-Nov-17 06:59N 52°27' E 004°05'0 0.0
2017-Nov-17 06:29N 52°27' E 004°05'0 0.1
2017-Nov-17 05:53N 52°27' E 004°05'0 0.1
2017-Nov-17 05:29N 52°27' E 004°05'0 0.2
2017-Nov-17 04:59N 52°27' E 004°05'0 0.2
2017-Nov-17 04:29N 52°27' E 004°05'0 0.1
2017-Nov-17 03:59N 52°27' E 004°05'0 0.0
2017-Nov-17 03:29N 52°27' E 004°05'0 0.0
2017-Nov-17 02:59N 52°27' E 004°05'0 0.0
2017-Nov-17 02:29N 52°27' E 004°05'0 0.0
2017-Nov-17 01:59N 52°27' E 004°05'0 0.0
2017-Nov-17 01:29N 52°27' E 004°05'0 0.0
2017-Nov-17 00:59N 52°27' E 004°05'0 0.2
2017-Nov-17 00:29N 52°27' E 004°05'0 0.3
2017-Nov-16 23:59N 52°27' E 004°05'0 0.2
2017-Nov-16 23:26N 52°27' E 004°05'0 0.0
2017-Nov-16 22:35N 52°27' E 004°05'0 0.0
2017-Nov-16 22:29N 52°27' E 004°05'0 0.0
2017-Nov-16 21:59N 52°27' E 004°05'0 0.0
2017-Nov-16 21:29N 52°27' E 004°05'0 0.0
2017-Nov-16 20:59N 52°27' E 004°05'0 0.0
2017-Nov-16 20:29N 52°27' E 004°05'0 0.0
2017-Nov-16 19:59N 52°27' E 004°05'0 0.0
2017-Nov-16 19:29N 52°27' E 004°05'0 0.0
2017-Nov-16 18:59N 52°27' E 004°05'0 0.0
2017-Nov-16 18:23N 52°27' E 004°05'0 0.1
2017-Nov-16 17:59N 52°27' E 004°05'0 0.2
2017-Nov-16 17:29N 52°27' E 004°05'0 0.1
2017-Nov-16 16:59N 52°27' E 004°05'0 0.2
2017-Nov-16 16:29N 52°27' E 004°05'0 0.1
2017-Nov-16 15:56N 52°27' E 004°05'0 0.0
2017-Nov-16 15:29N 52°27' E 004°05'0 0.0
2017-Nov-16 14:59N 52°27' E 004°05'0 0.0
2017-Nov-16 14:29N 52°27' E 004°05'0 0.0
2017-Nov-16 13:59N 52°27' E 004°05'0 0.0
2017-Nov-16 13:29N 52°27' E 004°05'0 0.1
2017-Nov-16 12:59N 52°27' E 004°05'0 0.0
2017-Nov-16 12:29N 52°27' E 004°05'0 0.0
2017-Nov-16 11:59N 52°27' E 004°05'0 0.0
2017-Nov-16 11:29N 52°27' E 004°05'0 0.2
2017-Nov-16 10:59N 52°27' E 004°05'0 0.3
2017-Nov-16 10:29N 52°27' E 004°05'0 0.1
2017-Nov-16 09:56N 52°27' E 004°05'0 0.0
2017-Nov-16 09:29N 52°27' E 004°05'0 0.0
2017-Nov-16 08:59N 52°27' E 004°05'0 0.0
2017-Nov-16 08:26N 52°27' E 004°05'0 0.0
2017-Nov-16 07:59N 52°27' E 004°05'0 0.0
2017-Nov-16 07:29N 52°27' E 004°05'0 0.0
2017-Nov-16 06:59N 52°27' E 004°05'0 0.1
2017-Nov-16 06:29N 52°27' E 004°05'0 0.2
2017-Nov-16 05:59N 52°27' E 004°05'0 0.3
2017-Nov-16 05:29N 52°27' E 004°05'0 0.2
2017-Nov-16 04:59N 52°27' E 004°05'0 0.1
2017-Nov-16 04:29N 52°27' E 004°05'0 0.0
2017-Nov-16 03:59N 52°27' E 004°05'0 0.0
2017-Nov-16 03:29N 52°27' E 004°05'0 0.0
2017-Nov-16 02:59N 52°27' E 004°05'0 0.0
2017-Nov-16 02:29N 52°27' E 004°05'0 0.0
2017-Nov-16 01:59N 52°27' E 004°05'0 0.0
2017-Nov-16 01:29N 52°27' E 004°05'0 0.0
2017-Nov-16 00:59N 52°27' E 004°05'0 0.0
2017-Nov-16 00:29N 52°27' E 004°05'0 0.0
2017-Nov-15 23:59N 52°27' E 004°05'0 0.0
2017-Nov-15 23:29N 52°27' E 004°05'0 0.1
2017-Nov-15 22:59N 52°27' E 004°05'0 0.4
2017-Nov-15 22:29N 52°27' E 004°05'0 0.1
2017-Nov-15 21:59N 52°27' E 004°05'0 0.0
2017-Nov-15 21:29N 52°27' E 004°05'0 0.0
2017-Nov-15 20:59N 52°27' E 004°05'0 0.0
2017-Nov-15 20:29N 52°27' E 004°05'0 0.0
2017-Nov-15 19:59N 52°27' E 004°05'0 0.0
2017-Nov-15 19:29N 52°27' E 004°05'0 0.0
2017-Nov-15 18:59N 52°27' E 004°05'0 0.0
2017-Nov-15 18:29N 52°27' E 004°05'0 0.0
2017-Nov-15 17:59N 52°27' E 004°05'0 0.0
2017-Nov-15 17:29N 52°27' E 004°05'0 0.2
2017-Nov-15 16:59N 52°27' E 004°05'0 0.3
2017-Nov-15 16:29N 52°27' E 004°05'0 0.2
2017-Nov-15 15:59N 52°27' E 004°05'0 0.0
2017-Nov-15 15:29N 52°27' E 004°05'0 0.0
2017-Nov-15 14:59N 52°27' E 004°05'0 0.0
2017-Nov-15 14:29N 52°27' E 004°05'0 0.0
2017-Nov-15 13:59N 52°27' E 004°05'0 0.0
2017-Nov-15 13:29N 52°27' E 004°05'0 0.1
2017-Nov-15 13:00N 52°27' E 004°05'1 2.2
2017-Nov-15 12:30N 52°28' E 004°05'510.0
2017-Nov-15 12:00N 52°27' E 003°57'612.2
2017-Nov-15 11:30N 52°27' E 003°47'5 9.3
2017-Nov-15 11:00N 52°30' E 003°41'611.1
2017-Nov-15 10:29N 52°35' E 003°37'8 0.6
2017-Nov-14 20:52N 52°42' E 003°29'0 0.4
2017-Nov-14 20:28N 52°42' E 003°29'0 0.5
2017-Nov-14 19:52N 52°42' E 003°29'0 0.7
2017-Nov-14 19:29N 52°43' E 003°29'0 0.8
2017-Nov-14 19:00N 52°43' E 003°29'0 0.9
2017-Nov-14 18:28N 52°43' E 003°29'0 1.0
2017-Nov-14 17:59N 52°44' E 003°29'2 0.2
2017-Nov-14 07:17N 52°42' E 003°30'2 1.3
2017-Nov-14 05:35N 52°44' E 003°29'1 1.3
2017-Nov-14 05:08N 52°44' E 003°29'0 1.3
2017-Nov-14 04:55N 52°44' E 003°29'3 1.0
2017-Nov-14 02:01N 52°46' E 003°25'0 0.9
2017-Nov-14 01:58N 52°46' E 003°25'1 0.9
2017-Nov-14 01:22N 52°46' E 003°24'0 0.9
2017-Nov-14 01:00N 52°46' E 003°23'0 0.8
2017-Nov-14 00:30N 52°46' E 003°23'0 0.7
2017-Nov-13 23:59N 52°45' E 003°22'0 0.8
2017-Nov-13 23:30N 52°45' E 003°22'0 0.6
2017-Nov-13 22:59N 52°45' E 003°21'0 0.5
2017-Nov-13 22:30N 52°45' E 003°21'0 0.2
2017-Nov-13 22:00N 52°45' E 003°21'  
2017-Nov-11 06:18N 52°41' E 003°23'0 0.7
2017-Nov-11 06:00N 52°41' E 003°23'0 0.6
2017-Nov-11 05:29N 52°41' E 003°23'0 0.8
2017-Nov-11 04:59N 52°42' E 003°22'1 1.1
2017-Nov-11 04:29N 52°42' E 003°22'1 1.3
2017-Nov-11 03:59N 52°43' E 003°22'1 1.2
2017-Nov-11 03:30N 52°44' E 003°22'3 4.7
2017-Nov-11 02:56N 52°42' E 003°25'12 1.1
2017-Nov-10 15:50N 52°36' E 003°43'2 5.4
2017-Nov-10 15:30N 52°35' E 003°46'3 5.6
2017-Nov-10 14:59N 52°34' E 003°50'3 5.7
2017-Nov-10 14:29N 52°33' E 003°54'3 5.9
2017-Nov-10 14:00N 52°32' E 003°59'3 5.8
2017-Nov-10 13:29N 52°30' E 004°01'3 6.2
2017-Nov-10 13:00N 52°27' E 004°02'1 1.2
2017-Nov-10 12:28N 52°26' E 004°02'0 0.2
2017-Nov-10 11:52N 52°26' E 004°03'0 0.1
2017-Nov-10 11:22N 52°26' E 004°03'0 0.1
2017-Nov-10 10:58N 52°26' E 004°03'0 0.1
2017-Nov-10 10:25N 52°26' E 004°03'0 0.1
2017-Nov-10 09:58N 52°26' E 004°03'0 0.2
2017-Nov-10 09:28N 52°26' E 004°03'0 0.1
2017-Nov-10 08:58N 52°26' E 004°03'0 0.0
2017-Nov-10 08:28N 52°26' E 004°03'0 0.0
2017-Nov-10 07:58N 52°26' E 004°03'0 0.0
2017-Nov-10 07:28N 52°26' E 004°03'0 0.0
2017-Nov-10 06:58N 52°26' E 004°03'0 0.0
2017-Nov-10 06:25N 52°26' E 004°03'0 0.0
2017-Nov-10 05:58N 52°26' E 004°03'0 0.1
2017-Nov-10 05:28N 52°26' E 004°03'0 0.1
2017-Nov-10 04:58N 52°26' E 004°03'0 0.0
2017-Nov-10 04:28N 52°26' E 004°03'0 0.3
2017-Nov-10 03:58N 52°26' E 004°03'0 0.2
2017-Nov-10 03:28N 52°26' E 004°02'0 0.1
2017-Nov-10 02:58N 52°26' E 004°02'0 0.0
2017-Nov-10 02:28N 52°26' E 004°02'0 0.0
2017-Nov-10 01:58N 52°26' E 004°02'0 0.0
2017-Nov-10 01:25N 52°26' E 004°02'0 0.0
2017-Nov-10 00:58N 52°26' E 004°02'0 0.0
2017-Nov-10 00:28N 52°26' E 004°02'  
Track history (hours):
 
Tides and Currents Weather Stations Pressure Air Temp Water Temp Dewpoint Dewpoint Depression Visibility Wind Speed Wind Dir Waves Ship Positions

Sagar Samrat

Last reported at 2017-Nov-20 00:27 UTC. Time now 2017-Nov-22 14:53 UTC.
Position N 52°28' E 004°35'.

Length 225 m; draft 14.1 m.

Type: Cargo ship. MMSI: 566014000.

Date/timePositionNaut miles runAvg speedWind from/ knotsBaromVisibWave heightAir tempDewpointWater temp
2017-Nov-20 00:27N 52°28' E 004°35'0 0.0
2017-Nov-20 00:00N 52°28' E 004°35'0 0.0
2017-Nov-19 23:30N 52°28' E 004°35'0 0.0
2017-Nov-19 23:00N 52°28' E 004°35'0 0.0
2017-Nov-19 22:30N 52°28' E 004°35'0 0.0
2017-Nov-19 21:57N 52°28' E 004°35'0 0.0
2017-Nov-19 21:30N 52°28' E 004°35'0 0.0
2017-Nov-19 21:00N 52°28' E 004°35'0 0.0
2017-Nov-19 20:30N 52°28' E 004°35'0 0.0
2017-Nov-19 20:00N 52°28' E 004°35'0 0.0
2017-Nov-19 19:30N 52°28' E 004°35'0 0.0
2017-Nov-19 19:00N 52°28' E 004°35'0 0.0
2017-Nov-19 18:30N 52°28' E 004°35'0 0.0
2017-Nov-19 17:57N 52°28' E 004°35'0 0.0
2017-Nov-19 17:30N 52°28' E 004°35'0 0.0
2017-Nov-19 17:00N 52°28' E 004°35'0 0.0
2017-Nov-19 16:30N 52°28' E 004°35'0 0.0
2017-Nov-19 16:00N 52°28' E 004°35'0 0.0
2017-Nov-19 15:30N 52°28' E 004°35'0 0.0
2017-Nov-19 15:00N 52°28' E 004°35'0 0.0
2017-Nov-19 14:30N 52°28' E 004°35'0 0.0
2017-Nov-19 14:00N 52°28' E 004°35'0 0.0
2017-Nov-19 13:30N 52°28' E 004°35'0 0.0
2017-Nov-19 12:57N 52°28' E 004°35'0 0.0
2017-Nov-19 12:30N 52°28' E 004°35'0 0.0
2017-Nov-19 12:00N 52°28' E 004°35'0 0.0
2017-Nov-19 11:30N 52°28' E 004°35'0 0.0
2017-Nov-19 11:00N 52°28' E 004°35'0 0.0
2017-Nov-19 10:30N 52°28' E 004°35'0 0.0
2017-Nov-19 10:00N 52°28' E 004°35'0 0.0
2017-Nov-19 09:30N 52°28' E 004°35'0 0.0
2017-Nov-19 09:00N 52°28' E 004°35'0 0.0
2017-Nov-19 08:30N 52°28' E 004°35'0 0.0
2017-Nov-19 08:00N 52°28' E 004°35'0 0.0
2017-Nov-19 07:30N 52°28' E 004°35'0 0.0
2017-Nov-19 07:00N 52°28' E 004°35'0 0.0
2017-Nov-19 06:30N 52°28' E 004°35'0 0.0
2017-Nov-19 06:00N 52°28' E 004°35'0 0.0
2017-Nov-19 05:30N 52°28' E 004°35'0 0.0
2017-Nov-19 05:00N 52°28' E 004°35'0 0.0
2017-Nov-19 04:30N 52°28' E 004°35'0 0.0
2017-Nov-19 04:00N 52°28' E 004°35'0 0.0
2017-Nov-19 03:24N 52°28' E 004°35'0 0.0
2017-Nov-19 03:00N 52°28' E 004°35'0 0.0
2017-Nov-19 02:30N 52°28' E 004°35'0 0.0
2017-Nov-19 02:00N 52°28' E 004°35'0 0.0
2017-Nov-19 01:30N 52°28' E 004°35'0 0.0
2017-Nov-19 01:00N 52°28' E 004°35'0 0.0
2017-Nov-19 00:30N 52°28' E 004°35'0 0.0
2017-Nov-19 00:00N 52°28' E 004°35'0 0.0
2017-Nov-18 23:27N 52°28' E 004°35'0 0.0
2017-Nov-18 23:00N 52°28' E 004°35'0 0.0
2017-Nov-18 22:30N 52°28' E 004°35'0 0.0
2017-Nov-18 22:00N 52°28' E 004°35'0 0.0
2017-Nov-18 21:30N 52°28' E 004°35'0 0.0
2017-Nov-18 21:00N 52°28' E 004°35'0 0.0
2017-Nov-18 20:30N 52°28' E 004°35'0 0.0
2017-Nov-18 20:00N 52°28' E 004°35'0 0.0
2017-Nov-18 19:30N 52°28' E 004°35'0 0.0
2017-Nov-18 19:00N 52°28' E 004°35'0 0.0
2017-Nov-18 18:30N 52°28' E 004°35'0 0.0
2017-Nov-18 18:00N 52°28' E 004°35'0 0.0
2017-Nov-18 17:30N 52°28' E 004°35'0 0.8
2017-Nov-18 17:01N 52°28' E 004°35'4 7.7
2017-Nov-18 16:30N 52°28' E 004°28'5 9.4
2017-Nov-18 16:01N 52°29' E 004°21'2 3.4
2017-Nov-18 15:31N 52°29' E 004°18'2 4.0
2017-Nov-18 15:00N 52°29' E 004°15'3 5.8
2017-Nov-18 14:30N 52°29' E 004°10'3 6.9
2017-Nov-18 14:01N 52°28' E 004°05'1 1.7
2017-Nov-18 13:29N 52°27' E 004°05'0 0.3
2017-Nov-18 12:59N 52°27' E 004°05'0 0.1
2017-Nov-18 12:29N 52°27' E 004°05'0 0.1
2017-Nov-18 11:59N 52°27' E 004°05'0 0.2
2017-Nov-18 11:29N 52°27' E 004°05'0 0.1
2017-Nov-18 10:59N 52°27' E 004°05'0 0.1
2017-Nov-18 10:29N 52°27' E 004°05'0 0.0
2017-Nov-18 09:59N 52°27' E 004°05'0 0.1
2017-Nov-18 09:20N 52°27' E 004°05'0 0.0
2017-Nov-18 08:59N 52°27' E 004°05'0 0.0
2017-Nov-18 08:29N 52°27' E 004°05'0 0.0
2017-Nov-18 07:59N 52°27' E 004°05'0 0.1
2017-Nov-18 07:29N 52°27' E 004°05'0 0.2
2017-Nov-18 06:59N 52°27' E 004°05'0 0.1
2017-Nov-18 06:26N 52°27' E 004°05'0 0.1
2017-Nov-18 05:59N 52°27' E 004°05'0 0.0
2017-Nov-18 05:29N 52°27' E 004°05'0 0.1
2017-Nov-18 04:59N 52°27' E 004°05'0 0.2
2017-Nov-18 04:29N 52°27' E 004°05'0 0.1
2017-Nov-18 03:59N 52°27' E 004°05'0 0.1
2017-Nov-18 03:29N 52°27' E 004°05'0 0.0
2017-Nov-18 02:59N 52°27' E 004°05'0 0.0
2017-Nov-18 02:29N 52°27' E 004°05'0 0.0
2017-Nov-18 01:59N 52°27' E 004°05'0 0.1
2017-Nov-18 01:29N 52°27' E 004°05'0 0.1
2017-Nov-18 00:59N 52°27' E 004°05'0 0.2
2017-Nov-18 00:29N 52°27' E 004°05'0 0.1
2017-Nov-17 23:59N 52°27' E 004°05'0 0.2
2017-Nov-17 23:29N 52°27' E 004°05'0 0.1
2017-Nov-17 22:59N 52°27' E 004°05'0 0.0
2017-Nov-17 22:23N 52°27' E 004°05'0 0.0
2017-Nov-17 21:29N 52°27' E 004°05'0 0.0
2017-Nov-17 20:56N 52°27' E 004°05'0 0.0
2017-Nov-17 20:29N 52°27' E 004°05'0 0.0
2017-Nov-17 19:53N 52°27' E 004°05'0 0.0
2017-Nov-17 19:29N 52°27' E 004°05'0 0.1
2017-Nov-17 18:50N 52°27' E 004°05'0 0.1
2017-Nov-17 18:26N 52°27' E 004°05'0 0.1
2017-Nov-17 17:59N 52°27' E 004°05'0 0.2
2017-Nov-17 17:29N 52°27' E 004°05'0 0.2
2017-Nov-17 16:59N 52°27' E 004°05'0 0.1
2017-Nov-17 16:26N 52°27' E 004°05'0 0.0
2017-Nov-17 15:59N 52°27' E 004°05'0 0.0
2017-Nov-17 15:29N 52°27' E 004°05'0 0.0
2017-Nov-17 14:59N 52°27' E 004°05'0 0.0
2017-Nov-17 14:29N 52°27' E 004°05'0 0.0
2017-Nov-17 13:59N 52°27' E 004°05'0 0.0
2017-Nov-17 13:29N 52°27' E 004°05'0 0.1
2017-Nov-17 12:56N 52°27' E 004°05'0 0.1
2017-Nov-17 12:29N 52°27' E 004°05'0 0.2
2017-Nov-17 11:59N 52°27' E 004°05'0 0.2
2017-Nov-17 11:29N 52°27' E 004°05'0 0.1
2017-Nov-17 10:53N 52°27' E 004°05'0 0.0
2017-Nov-17 10:26N 52°27' E 004°05'0 0.0
2017-Nov-17 09:59N 52°27' E 004°05'0 0.0
2017-Nov-17 09:20N 52°27' E 004°05'0 0.0
2017-Nov-17 08:59N 52°27' E 004°05'0 0.0
2017-Nov-17 08:29N 52°27' E 004°05'0 0.0
2017-Nov-17 07:59N 52°27' E 004°05'0 0.0
2017-Nov-17 07:23N 52°27' E 004°05'0 0.0
2017-Nov-17 06:59N 52°27' E 004°05'0 0.0
2017-Nov-17 06:29N 52°27' E 004°05'0 0.1
2017-Nov-17 05:53N 52°27' E 004°05'0 0.1
2017-Nov-17 05:29N 52°27' E 004°05'0 0.2
2017-Nov-17 04:59N 52°27' E 004°05'0 0.2
2017-Nov-17 04:29N 52°27' E 004°05'0 0.1
2017-Nov-17 03:59N 52°27' E 004°05'0 0.0
2017-Nov-17 03:29N 52°27' E 004°05'0 0.0
2017-Nov-17 02:59N 52°27' E 004°05'0 0.0
2017-Nov-17 02:29N 52°27' E 004°05'0 0.0
2017-Nov-17 01:59N 52°27' E 004°05'0 0.0
2017-Nov-17 01:29N 52°27' E 004°05'0 0.0
2017-Nov-17 00:59N 52°27' E 004°05'0 0.2
2017-Nov-17 00:29N 52°27' E 004°05'0 0.3
2017-Nov-16 23:59N 52°27' E 004°05'0 0.2
2017-Nov-16 23:26N 52°27' E 004°05'0 0.0
2017-Nov-16 22:35N 52°27' E 004°05'0 0.0
2017-Nov-16 22:29N 52°27' E 004°05'0 0.0
2017-Nov-16 21:59N 52°27' E 004°05'0 0.0
2017-Nov-16 21:29N 52°27' E 004°05'0 0.0
2017-Nov-16 20:59N 52°27' E 004°05'0 0.0
2017-Nov-16 20:29N 52°27' E 004°05'0 0.0
2017-Nov-16 19:59N 52°27' E 004°05'0 0.0
2017-Nov-16 19:29N 52°27' E 004°05'0 0.0
2017-Nov-16 18:59N 52°27' E 004°05'0 0.0
2017-Nov-16 18:23N 52°27' E 004°05'0 0.1
2017-Nov-16 17:59N 52°27' E 004°05'0 0.2
2017-Nov-16 17:29N 52°27' E 004°05'0 0.1
2017-Nov-16 16:59N 52°27' E 004°05'0 0.2
2017-Nov-16 16:29N 52°27' E 004°05'0 0.1
2017-Nov-16 15:56N 52°27' E 004°05'0 0.0
2017-Nov-16 15:29N 52°27' E 004°05'0 0.0
2017-Nov-16 14:59N 52°27' E 004°05'0 0.0
2017-Nov-16 14:29N 52°27' E 004°05'0 0.0
2017-Nov-16 13:59N 52°27' E 004°05'0 0.0
2017-Nov-16 13:29N 52°27' E 004°05'0 0.1
2017-Nov-16 12:59N 52°27' E 004°05'0 0.0
2017-Nov-16 12:29N 52°27' E 004°05'0 0.0
2017-Nov-16 11:59N 52°27' E 004°05'0 0.0
2017-Nov-16 11:29N 52°27' E 004°05'0 0.2
2017-Nov-16 10:59N 52°27' E 004°05'0 0.3
2017-Nov-16 10:29N 52°27' E 004°05'0 0.1
2017-Nov-16 09:56N 52°27' E 004°05'0 0.0
2017-Nov-16 09:29N 52°27' E 004°05'0 0.0
2017-Nov-16 08:59N 52°27' E 004°05'0 0.0
2017-Nov-16 08:26N 52°27' E 004°05'0 0.0
2017-Nov-16 07:59N 52°27' E 004°05'0 0.0
2017-Nov-16 07:29N 52°27' E 004°05'0 0.0
2017-Nov-16 06:59N 52°27' E 004°05'0 0.1
2017-Nov-16 06:29N 52°27' E 004°05'0 0.2
2017-Nov-16 05:59N 52°27' E 004°05'0 0.3
2017-Nov-16 05:29N 52°27' E 004°05'0 0.2
2017-Nov-16 04:59N 52°27' E 004°05'0 0.1
2017-Nov-16 04:29N 52°27' E 004°05'0 0.0
2017-Nov-16 03:59N 52°27' E 004°05'0 0.0
2017-Nov-16 03:29N 52°27' E 004°05'0 0.0
2017-Nov-16 02:59N 52°27' E 004°05'0 0.0
2017-Nov-16 02:29N 52°27' E 004°05'0 0.0
2017-Nov-16 01:59N 52°27' E 004°05'0 0.0
2017-Nov-16 01:29N 52°27' E 004°05'0 0.0
2017-Nov-16 00:59N 52°27' E 004°05'0 0.0
2017-Nov-16 00:29N 52°27' E 004°05'0 0.0
2017-Nov-15 23:59N 52°27' E 004°05'0 0.0
2017-Nov-15 23:29N 52°27' E 004°05'0 0.1
2017-Nov-15 22:59N 52°27' E 004°05'0 0.4
2017-Nov-15 22:29N 52°27' E 004°05'0 0.1
2017-Nov-15 21:59N 52°27' E 004°05'0 0.0
2017-Nov-15 21:29N 52°27' E 004°05'0 0.0
2017-Nov-15 20:59N 52°27' E 004°05'0 0.0
2017-Nov-15 20:29N 52°27' E 004°05'0 0.0
2017-Nov-15 19:59N 52°27' E 004°05'0 0.0
2017-Nov-15 19:29N 52°27' E 004°05'0 0.0
2017-Nov-15 18:59N 52°27' E 004°05'0 0.0
2017-Nov-15 18:29N 52°27' E 004°05'0 0.0
2017-Nov-15 17:59N 52°27' E 004°05'0 0.0
2017-Nov-15 17:29N 52°27' E 004°05'0 0.2
2017-Nov-15 16:59N 52°27' E 004°05'0 0.3
2017-Nov-15 16:29N 52°27' E 004°05'0 0.2
2017-Nov-15 15:59N 52°27' E 004°05'0 0.0
2017-Nov-15 15:29N 52°27' E 004°05'0 0.0
2017-Nov-15 14:59N 52°27' E 004°05'0 0.0
2017-Nov-15 14:29N 52°27' E 004°05'0 0.0
2017-Nov-15 13:59N 52°27' E 004°05'0 0.0
2017-Nov-15 13:29N 52°27' E 004°05'0 0.1
2017-Nov-15 13:00N 52°27' E 004°05'1 2.2
2017-Nov-15 12:30N 52°28' E 004°05'510.0
2017-Nov-15 12:00N 52°27' E 003°57'612.2
2017-Nov-15 11:30N 52°27' E 003°47'5 9.3
2017-Nov-15 11:00N 52°30' E 003°41'611.1
2017-Nov-15 10:29N 52°35' E 003°37'8 0.6
2017-Nov-14 20:52N 52°42' E 003°29'0 0.4
2017-Nov-14 20:28N 52°42' E 003°29'0 0.5
2017-Nov-14 19:52N 52°42' E 003°29'0 0.7
2017-Nov-14 19:29N 52°43' E 003°29'0 0.8
2017-Nov-14 19:00N 52°43' E 003°29'0 0.9
2017-Nov-14 18:28N 52°43' E 003°29'0 1.0
2017-Nov-14 17:59N 52°44' E 003°29'2 0.2
2017-Nov-14 07:17N 52°42' E 003°30'2 1.3
2017-Nov-14 05:35N 52°44' E 003°29'1 1.3
2017-Nov-14 05:08N 52°44' E 003°29'0 1.3
2017-Nov-14 04:55N 52°44' E 003°29'3 1.0
2017-Nov-14 02:01N 52°46' E 003°25'0 0.9
2017-Nov-14 01:58N 52°46' E 003°25'1 0.9
2017-Nov-14 01:22N 52°46' E 003°24'0 0.9
2017-Nov-14 01:00N 52°46' E 003°23'0 0.8
2017-Nov-14 00:30N 52°46' E 003°23'0 0.7
2017-Nov-13 23:59N 52°45' E 003°22'0 0.8
2017-Nov-13 23:30N 52°45' E 003°22'0 0.6
2017-Nov-13 22:59N 52°45' E 003°21'0 0.5
2017-Nov-13 22:30N 52°45' E 003°21'0 0.2
2017-Nov-13 22:00N 52°45' E 003°21'  
2017-Nov-11 06:18N 52°41' E 003°23'0 0.7
2017-Nov-11 06:00N 52°41' E 003°23'0 0.6
2017-Nov-11 05:29N 52°41' E 003°23'0 0.8
2017-Nov-11 04:59N 52°42' E 003°22'1 1.1
2017-Nov-11 04:29N 52°42' E 003°22'1 1.3
2017-Nov-11 03:59N 52°43' E 003°22'1 1.2
2017-Nov-11 03:30N 52°44' E 003°22'3 4.7
2017-Nov-11 02:56N 52°42' E 003°25'12 1.1
2017-Nov-10 15:50N 52°36' E 003°43'2 5.4
2017-Nov-10 15:30N 52°35' E 003°46'3 5.6
2017-Nov-10 14:59N 52°34' E 003°50'3 5.7
2017-Nov-10 14:29N 52°33' E 003°54'3 5.9
2017-Nov-10 14:00N 52°32' E 003°59'3 5.8
2017-Nov-10 13:29N 52°30' E 004°01'3 6.2
2017-Nov-10 13:00N 52°27' E 004°02'1 1.2
2017-Nov-10 12:28N 52°26' E 004°02'0 0.2
2017-Nov-10 11:52N 52°26' E 004°03'0 0.1
2017-Nov-10 11:22N 52°26' E 004°03'0 0.1
2017-Nov-10 10:58N 52°26' E 004°03'0 0.1
2017-Nov-10 10:25N 52°26' E 004°03'0 0.1
2017-Nov-10 09:58N 52°26' E 004°03'0 0.2
2017-Nov-10 09:28N 52°26' E 004°03'0 0.1
2017-Nov-10 08:58N 52°26' E 004°03'0 0.0
2017-Nov-10 08:28N 52°26' E 004°03'0 0.0
2017-Nov-10 07:58N 52°26' E 004°03'0 0.0
2017-Nov-10 07:28N 52°26' E 004°03'0 0.0
2017-Nov-10 06:58N 52°26' E 004°03'0 0.0
2017-Nov-10 06:25N 52°26' E 004°03'0 0.0
2017-Nov-10 05:58N 52°26' E 004°03'0 0.1
2017-Nov-10 05:28N 52°26' E 004°03'0 0.1
2017-Nov-10 04:58N 52°26' E 004°03'0 0.0
2017-Nov-10 04:28N 52°26' E 004°03'0 0.3
2017-Nov-10 03:58N 52°26' E 004°03'0 0.2
2017-Nov-10 03:28N 52°26' E 004°02'0 0.1
2017-Nov-10 02:58N 52°26' E 004°02'0 0.0
2017-Nov-10 02:28N 52°26' E 004°02'0 0.0
2017-Nov-10 01:58N 52°26' E 004°02'0 0.0
2017-Nov-10 01:25N 52°26' E 004°02'0 0.0
2017-Nov-10 00:58N 52°26' E 004°02'0 0.0
2017-Nov-10 00:28N 52°26' E 004°02'  

Dump ship's entire track history